createdAt,value
2018-04-14T00:01:59.013Z,11.53
2018-04-14T00:04:26.486Z,11.57
2018-04-14T00:06:53.942Z,11.62
2018-04-14T00:09:21.407Z,11.65
2018-04-14T00:11:48.882Z,11.65
2018-04-14T00:14:16.376Z,11.60
2018-04-14T00:16:43.886Z,11.59
2018-04-14T00:19:11.391Z,11.53
2018-04-14T00:21:38.873Z,11.50
2018-04-14T00:24:06.385Z,11.47
2018-04-14T00:26:33.871Z,11.54
2018-04-14T00:29:01.409Z,11.51
2018-04-14T00:31:28.903Z,11.47
2018-04-14T00:33:56.393Z,11.43
2018-04-14T00:36:23.911Z,11.44
2018-04-14T00:38:51.432Z,11.45
2018-04-14T00:41:18.937Z,11.40
2018-04-14T00:43:46.441Z,11.39
2018-04-14T00:46:13.944Z,11.45
2018-04-14T00:48:41.410Z,11.46
2018-04-14T00:51:08.902Z,11.45
2018-04-14T00:53:47.389Z,11.43
2018-04-14T00:56:14.878Z,11.39
2018-04-14T00:58:42.351Z,11.33
2018-04-14T01:01:09.851Z,11.26
2018-04-14T01:03:37.363Z,11.29
2018-04-14T01:06:04.859Z,11.28
2018-04-14T01:08:32.388Z,11.22
2018-04-14T01:10:59.887Z,11.24
2018-04-14T01:13:27.367Z,11.23
2018-04-14T01:15:54.872Z,11.20
2018-04-14T01:18:22.381Z,11.22
2018-04-14T01:20:50.023Z,11.19
2018-04-14T01:23:17.542Z,11.21
2018-04-14T01:25:45.133Z,11.23
2018-04-14T01:28:12.638Z,11.18
2018-04-14T01:30:40.207Z,11.17
2018-04-14T01:33:07.696Z,11.19
2018-04-14T01:35:35.171Z,11.22
2018-04-14T01:38:02.667Z,11.24
2018-04-14T01:40:30.141Z,11.26
2018-04-14T01:42:57.623Z,11.20
2018-04-14T01:45:25.100Z,11.17
2018-04-14T01:47:52.589Z,11.15
2018-04-14T01:50:20.121Z,11.16
2018-04-14T01:52:47.666Z,11.17
2018-04-14T01:55:15.164Z,11.15
2018-04-14T01:57:42.672Z,11.13
2018-04-14T02:00:10.168Z,11.17
2018-04-14T02:02:37.666Z,11.14
2018-04-14T02:05:05.178Z,11.14
2018-04-14T02:07:32.655Z,11.14
2018-04-14T02:10:00.140Z,11.15
2018-04-14T02:12:27.620Z,11.09
2018-04-14T02:14:55.244Z,11.07
2018-04-14T02:17:22.707Z,11.06
2018-04-14T02:19:50.175Z,11.10
2018-04-14T02:22:17.665Z,11.12
2018-04-14T02:24:45.124Z,11.13
2018-04-14T02:27:12.575Z,11.14
2018-04-14T02:29:40.089Z,11.13
2018-04-14T02:32:07.692Z,11.07
2018-04-14T02:34:35.239Z,11.04
2018-04-14T02:37:02.738Z,11.10
2018-04-14T02:39:30.192Z,11.10
2018-04-14T02:41:57.697Z,11.11
2018-04-14T02:44:25.194Z,11.07
2018-04-14T02:46:52.728Z,11.08
2018-04-14T02:49:20.272Z,11.02
2018-04-14T02:51:47.751Z,11.06
2018-04-14T02:54:15.304Z,11.04
2018-04-14T02:56:42.860Z,11.05
2018-04-14T02:59:10.433Z,11.05
2018-04-14T03:01:38.007Z,11.06
2018-04-14T03:04:05.497Z,11.07
2018-04-14T03:06:32.997Z,11.08
2018-04-14T03:09:00.477Z,11.11
2018-04-14T03:11:27.955Z,11.07
2018-04-14T03:13:55.490Z,11.07
2018-04-14T03:16:22.984Z,11.10
2018-04-14T03:18:50.517Z,11.05
2018-04-14T03:21:17.980Z,11.07
2018-04-14T03:23:45.506Z,11.08
2018-04-14T03:26:13.015Z,11.13
2018-04-14T03:28:40.498Z,11.13
2018-04-14T03:31:08.047Z,11.08
2018-04-14T03:33:35.559Z,11.08
2018-04-14T03:36:03.071Z,11.13
2018-04-14T03:38:30.527Z,11.11
2018-04-14T03:40:57.985Z,11.14
2018-04-14T03:43:25.499Z,11.18
2018-04-14T03:45:52.989Z,11.23
2018-04-14T03:48:20.449Z,11.25
2018-04-14T03:50:47.958Z,11.27
2018-04-14T03:53:15.449Z,11.32
2018-04-14T03:55:42.964Z,11.34
2018-04-14T03:58:10.466Z,11.37
2018-04-14T04:00:37.987Z,11.35
2018-04-14T04:03:05.489Z,11.35
2018-04-14T04:05:32.977Z,11.27
2018-04-14T04:08:00.447Z,11.26
2018-04-14T04:10:27.976Z,11.25
2018-04-14T04:12:55.477Z,11.22
2018-04-14T04:15:22.949Z,11.20
2018-04-14T04:17:50.428Z,11.21
2018-04-14T04:23:36.494Z,11.11
2018-04-14T04:26:03.963Z,11.12
2018-04-14T04:28:31.454Z,11.08
2018-04-14T04:30:58.948Z,11.04
2018-04-14T04:33:26.412Z,11.01
2018-04-14T04:35:53.868Z,10.98
2018-04-14T04:38:21.393Z,10.95
2018-04-14T04:40:48.896Z,10.97
2018-04-14T04:43:16.356Z,10.95
2018-04-14T04:45:43.869Z,10.89
2018-04-14T04:48:11.337Z,10.92
2018-04-14T04:50:38.833Z,10.92
2018-04-14T04:53:06.372Z,10.92
2018-04-14T04:55:33.847Z,10.91
2018-04-14T04:58:01.377Z,10.94
2018-04-14T05:00:28.880Z,10.95
2018-04-14T05:02:56.348Z,10.97
2018-04-14T05:05:23.903Z,11.00
2018-04-14T05:07:51.420Z,11.00
2018-04-14T05:10:18.916Z,11.03
2018-04-14T05:12:46.375Z,11.03
2018-04-14T05:15:13.876Z,11.01
2018-04-14T05:17:41.368Z,11.03
2018-04-14T05:20:08.955Z,11.03
2018-04-14T05:22:36.510Z,11.05
2018-04-14T05:25:04.000Z,11.08
2018-04-14T05:27:31.472Z,11.09
2018-04-14T05:29:58.968Z,11.12
2018-04-14T05:32:26.496Z,11.13
2018-04-14T05:34:53.961Z,11.11
2018-04-14T05:37:21.458Z,11.09
2018-04-14T05:39:48.988Z,11.07
2018-04-14T05:42:16.485Z,11.07
2018-04-14T05:44:44.004Z,11.09
2018-04-14T05:47:11.475Z,11.05
2018-04-14T05:49:38.923Z,11.02
2018-04-14T05:52:06.391Z,11.01
2018-04-14T05:54:33.847Z,11.03
2018-04-14T05:57:01.335Z,11.05
2018-04-14T05:59:28.787Z,11.04
2018-04-14T06:01:56.240Z,11.05
2018-04-14T06:04:23.705Z,11.06
2018-04-14T06:06:51.202Z,11.17
2018-04-14T06:09:18.681Z,11.26
2018-04-14T06:11:46.151Z,11.35
2018-04-14T06:14:13.737Z,11.37
2018-04-14T06:16:41.216Z,11.35
2018-04-14T06:19:08.669Z,11.32
2018-04-14T06:21:36.158Z,11.34
2018-04-14T06:24:03.689Z,11.36
2018-04-14T06:26:31.177Z,11.39
2018-04-14T06:28:58.739Z,11.38
2018-04-14T06:31:26.235Z,11.27
2018-04-14T06:33:53.758Z,11.19
2018-04-14T06:36:21.246Z,11.21
2018-04-14T06:38:48.737Z,11.23
2018-04-14T06:41:16.187Z,11.27
2018-04-14T06:43:43.717Z,11.33
2018-04-14T06:46:11.207Z,11.36
2018-04-14T06:48:38.735Z,11.36
2018-04-14T06:51:06.224Z,11.41
2018-04-14T06:53:33.710Z,11.45
2018-04-14T06:56:01.171Z,11.54
2018-04-14T06:58:28.664Z,11.61
2018-04-14T07:00:56.192Z,11.77
2018-04-14T07:03:23.648Z,11.95
2018-04-14T07:05:51.168Z,12.03
2018-04-14T07:08:18.627Z,12.21
2018-04-14T07:10:46.133Z,12.17
2018-04-14T07:13:13.688Z,12.13
2018-04-14T07:15:41.154Z,12.12
2018-04-14T07:18:08.670Z,12.08
2018-04-14T07:20:36.161Z,12.18
2018-04-14T07:23:03.638Z,12.27
2018-04-14T07:25:31.184Z,12.33
2018-04-14T07:27:58.682Z,12.41
2018-04-14T07:30:26.238Z,12.41
2018-04-14T07:32:53.753Z,12.33
2018-04-14T07:35:21.266Z,12.50
2018-04-14T07:37:48.768Z,12.77
2018-04-14T07:40:16.812Z,12.92
2018-04-14T07:42:44.278Z,12.96
2018-04-14T07:45:11.778Z,13.09
2018-04-14T07:47:39.347Z,13.22
2018-04-14T07:50:06.831Z,13.29
2018-04-14T07:52:34.362Z,13.39
2018-04-14T07:55:01.941Z,13.63
2018-04-14T07:57:29.407Z,13.90
2018-04-14T07:59:56.905Z,14.17
2018-04-14T08:02:24.401Z,14.18
2018-04-14T08:04:51.883Z,14.18
2018-04-14T08:07:19.358Z,14.12
2018-04-14T08:09:46.820Z,13.85
2018-04-14T08:12:14.309Z,13.56
2018-04-14T08:14:41.828Z,13.57
2018-04-14T08:17:09.361Z,13.61
2018-04-14T08:19:36.847Z,13.67
2018-04-14T08:22:04.329Z,13.64
2018-04-14T08:24:31.910Z,13.49
2018-04-14T08:26:59.421Z,13.49
2018-04-14T08:29:26.926Z,13.54
2018-04-14T08:31:54.413Z,13.67
2018-04-14T08:34:21.928Z,13.76
2018-04-14T08:36:49.488Z,13.96
2018-04-14T08:39:17.075Z,14.19
2018-04-14T08:41:44.577Z,14.71
2018-04-14T08:44:12.190Z,14.77
2018-04-14T08:46:39.687Z,14.72
2018-04-14T08:49:07.181Z,14.73
2018-04-14T08:51:34.695Z,14.86
2018-04-14T08:54:02.196Z,15.05
2018-04-14T08:56:30.636Z,15.36
2018-04-14T08:58:58.149Z,15.53
2018-04-14T09:01:25.619Z,15.43
2018-04-14T09:03:53.110Z,15.42
2018-04-14T09:06:20.626Z,15.30
2018-04-14T09:08:48.093Z,14.95
2018-04-14T09:11:15.583Z,14.72
2018-04-14T09:13:43.072Z,14.52
2018-04-14T09:16:10.682Z,14.52
2018-04-14T09:18:38.335Z,14.54
2018-04-14T09:21:05.868Z,14.48
2018-04-14T09:23:33.337Z,14.53
2018-04-14T09:26:00.866Z,14.65
2018-04-14T09:28:28.330Z,14.71
2018-04-14T09:30:55.900Z,14.97
2018-04-14T09:33:23.422Z,15.20
2018-04-14T09:35:50.932Z,15.41
2018-04-14T09:38:18.436Z,15.53
2018-04-14T09:40:45.937Z,15.85
2018-04-14T09:43:13.438Z,16.05
2018-04-14T09:45:40.947Z,16.37
2018-04-14T09:48:08.481Z,16.59
2018-04-14T09:50:35.947Z,16.36
2018-04-14T09:53:03.400Z,16.33
2018-04-14T09:55:30.995Z,16.35
2018-04-14T09:57:58.480Z,16.26
2018-04-14T10:00:27.826Z,15.96
2018-04-14T10:03:00.410Z,16.03
2018-04-14T10:05:27.827Z,15.93
2018-04-14T10:07:55.308Z,16.09
2018-04-14T10:10:22.859Z,16.05
2018-04-14T10:12:50.283Z,15.95
2018-04-14T10:15:17.751Z,16.14
2018-04-14T10:17:45.257Z,16.29
2018-04-14T10:20:12.799Z,16.36
2018-04-14T10:22:40.312Z,16.67
2018-04-14T10:25:07.823Z,16.87
2018-04-14T10:27:35.366Z,17.04
2018-04-14T10:30:02.834Z,17.13
2018-04-14T10:32:30.354Z,17.27
2018-04-14T10:34:57.823Z,17.29
2018-04-14T10:37:25.322Z,17.29
2018-04-14T10:39:52.835Z,17.07
2018-04-14T10:42:20.303Z,17.02
2018-04-14T10:44:47.786Z,16.88
2018-04-14T10:47:15.290Z,17.07
2018-04-14T10:49:42.779Z,17.16
2018-04-14T10:52:10.317Z,17.23
2018-04-14T10:54:37.859Z,17.18
2018-04-14T10:57:05.371Z,17.34
2018-04-14T10:59:32.927Z,17.46
2018-04-14T11:02:00.432Z,17.46
2018-04-14T11:04:27.901Z,17.52
2018-04-14T11:06:55.488Z,17.47
2018-04-14T11:09:22.990Z,17.42
2018-04-14T11:11:50.572Z,17.60
2018-04-14T11:14:18.036Z,17.94
2018-04-14T11:16:45.632Z,18.33
2018-04-14T11:19:13.117Z,18.72
2018-04-14T11:21:40.607Z,18.72
2018-04-14T11:24:08.116Z,18.68
2018-04-14T11:26:35.757Z,18.61
2018-04-14T11:29:03.226Z,18.46
2018-04-14T11:31:30.715Z,17.96
2018-04-14T11:33:58.324Z,17.77
2018-04-14T11:36:25.850Z,17.84
2018-04-14T11:38:53.325Z,17.99
2018-04-14T11:41:20.821Z,18.17
2018-04-14T11:43:48.305Z,18.49
2018-04-14T11:46:15.781Z,18.24
2018-04-14T11:48:43.313Z,18.46
2018-04-14T11:51:10.805Z,18.81
2018-04-14T11:53:38.315Z,18.50
2018-04-14T11:56:05.842Z,18.37
2018-04-14T11:58:33.356Z,18.17
2018-04-14T12:01:00.864Z,17.90
2018-04-14T12:03:28.421Z,17.68
2018-04-14T12:05:55.871Z,17.56
2018-04-14T12:08:23.445Z,17.29
2018-04-14T12:10:50.982Z,17.10
2018-04-14T12:13:18.472Z,16.55
2018-04-14T12:15:45.972Z,15.58
2018-04-14T12:18:13.447Z,14.94
2018-04-14T12:20:40.908Z,14.47
2018-04-14T12:23:08.465Z,14.01
2018-04-14T12:25:35.962Z,13.73
2018-04-14T12:28:03.418Z,13.64
2018-04-14T12:30:30.908Z,13.56
2018-04-14T12:32:58.396Z,13.51
2018-04-14T12:35:25.899Z,13.44
2018-04-14T12:37:59.884Z,13.32
2018-04-14T12:40:27.374Z,13.38
2018-04-14T12:42:54.864Z,13.34
2018-04-14T12:45:22.375Z,13.35
2018-04-14T12:47:49.875Z,13.46
2018-04-14T12:50:17.376Z,13.55
2018-04-14T12:52:44.958Z,13.66
2018-04-14T12:55:12.489Z,13.73
2018-04-14T12:57:39.999Z,13.72
2018-04-14T13:00:07.499Z,13.69
2018-04-14T13:02:35.004Z,13.71
2018-04-14T13:05:02.528Z,13.73
2018-04-14T13:07:30.097Z,13.88
2018-04-14T13:09:57.588Z,14.11
2018-04-14T13:12:25.056Z,14.26
2018-04-14T13:14:52.598Z,14.27
2018-04-14T13:17:20.064Z,14.25
2018-04-14T13:19:47.552Z,14.15
2018-04-14T13:22:15.075Z,14.18
2018-04-14T13:24:42.613Z,14.31
2018-04-14T13:27:10.104Z,14.53
2018-04-14T13:29:37.613Z,14.71
2018-04-14T13:32:05.063Z,15.07
2018-04-14T13:34:32.540Z,15.54
2018-04-14T13:37:00.056Z,15.89
2018-04-14T13:39:27.562Z,15.93
2018-04-14T13:41:55.061Z,16.11
2018-04-14T13:44:22.524Z,16.09
2018-04-14T13:46:49.976Z,16.10
2018-04-14T13:49:17.444Z,16.11
2018-04-14T13:51:45.018Z,16.18
2018-04-14T13:54:12.510Z,16.28
2018-04-14T13:56:40.013Z,16.28
2018-04-14T13:59:07.492Z,16.37
2018-04-14T14:01:34.984Z,16.53
2018-04-14T14:04:02.514Z,16.67
2018-04-14T14:06:29.980Z,16.78
2018-04-14T14:08:57.444Z,16.72
2018-04-14T14:11:24.950Z,16.79
2018-04-14T14:13:52.446Z,16.91
2018-04-14T14:16:19.920Z,17.10
2018-04-14T14:18:47.441Z,17.20
2018-04-14T14:21:14.937Z,17.30
2018-04-14T14:23:42.438Z,17.42
2018-04-14T14:26:09.919Z,17.59
2018-04-14T14:28:37.421Z,17.70
2018-04-14T14:31:04.914Z,17.65
2018-04-14T14:33:32.411Z,17.75
2018-04-14T14:35:59.882Z,17.87
2018-04-14T14:38:27.389Z,17.89
2018-04-14T14:40:54.914Z,17.89
2018-04-14T14:43:22.540Z,17.77
2018-04-14T14:45:50.091Z,17.54
2018-04-14T14:48:17.567Z,17.63
2018-04-14T14:50:45.044Z,17.88
2018-04-14T14:53:12.517Z,18.05
2018-04-14T14:55:39.988Z,17.99
2018-04-14T14:58:07.508Z,17.77
2018-04-14T15:00:35.074Z,17.55
2018-04-14T15:03:02.573Z,17.47
2018-04-14T15:05:30.085Z,17.37
2018-04-14T15:07:57.555Z,17.32
2018-04-14T15:10:25.041Z,17.41
2018-04-14T15:12:52.540Z,17.62
2018-04-14T15:15:20.061Z,17.82
2018-04-14T15:17:47.587Z,17.84
2018-04-14T15:20:15.074Z,17.81
2018-04-14T15:22:42.572Z,17.75
2018-04-14T15:25:10.064Z,17.78
2018-04-14T15:27:37.553Z,17.85
2018-04-14T15:30:05.071Z,17.88
2018-04-14T15:32:32.643Z,17.87
2018-04-14T15:35:00.221Z,17.88
2018-04-14T15:37:27.703Z,17.93
2018-04-14T15:39:55.154Z,17.80
2018-04-14T15:42:22.679Z,17.62
2018-04-14T15:44:50.161Z,17.89
2018-04-14T15:47:17.670Z,18.43
2018-04-14T15:49:45.203Z,18.28
2018-04-14T15:52:12.674Z,18.16
2018-04-14T15:54:40.146Z,18.05
2018-04-14T15:57:07.667Z,17.86
2018-04-14T15:59:35.268Z,17.95
2018-04-14T16:02:02.788Z,18.66
2018-04-14T16:04:30.333Z,18.70
2018-04-14T16:06:57.910Z,18.79
2018-04-14T16:09:25.596Z,18.88
2018-04-14T16:11:53.039Z,19.21
2018-04-14T16:14:20.565Z,19.16
2018-04-14T16:16:48.089Z,19.20
2018-04-14T16:19:15.575Z,19.13
2018-04-14T16:21:43.254Z,19.13
2018-04-14T16:24:10.756Z,19.03
2018-04-14T16:26:38.289Z,18.92
2018-04-14T16:29:05.837Z,18.88
2018-04-14T16:31:33.407Z,18.72
2018-04-14T16:34:00.964Z,18.70
2018-04-14T16:36:28.495Z,18.83
2018-04-14T16:38:55.998Z,18.99
2018-04-14T16:41:23.484Z,19.02
2018-04-14T16:43:50.980Z,18.83
2018-04-14T16:46:18.453Z,18.71
2018-04-14T16:48:46.244Z,18.40
2018-04-14T16:51:14.712Z,18.15
2018-04-14T16:53:42.456Z,17.85
2018-04-14T16:56:10.650Z,17.72
2018-04-14T16:58:38.533Z,17.56
2018-04-14T17:01:06.757Z,17.43
2018-04-14T17:03:34.251Z,17.35
2018-04-14T17:06:02.579Z,17.22
2018-04-14T17:08:30.085Z,17.13
2018-04-14T17:10:57.818Z,17.04
2018-04-14T17:13:25.991Z,16.98
2018-04-14T17:15:53.961Z,16.90
2018-04-14T17:18:21.705Z,16.83
2018-04-14T17:20:49.387Z,16.77
2018-04-14T17:23:17.797Z,16.70
2018-04-14T17:25:45.516Z,16.67
2018-04-14T17:28:13.000Z,16.62
2018-04-14T17:30:40.481Z,16.56
2018-04-14T17:33:07.989Z,16.51
2018-04-14T17:35:35.484Z,16.47
2018-04-14T17:38:02.995Z,16.40
2018-04-14T17:40:30.468Z,16.31
2018-04-14T17:42:58.023Z,16.25
2018-04-14T17:45:25.526Z,16.15
2018-04-14T17:47:52.990Z,16.12
2018-04-14T17:50:20.480Z,16.02
2018-04-14T17:52:47.959Z,15.91
2018-04-14T17:55:15.433Z,15.84
2018-04-14T17:57:42.977Z,15.78
2018-04-14T18:00:10.519Z,15.71
2018-04-14T18:02:38.010Z,15.66
2018-04-14T18:05:05.530Z,15.59
2018-04-14T18:07:33.187Z,15.51
2018-04-14T18:10:00.682Z,15.47
2018-04-14T18:12:28.160Z,15.42
2018-04-14T18:14:55.640Z,15.37
2018-04-14T18:17:23.196Z,15.32
2018-04-14T18:19:50.659Z,15.20
2018-04-14T18:22:18.191Z,15.08
2018-04-14T18:24:45.731Z,15.01
2018-04-14T18:27:13.213Z,14.91
2018-04-14T18:29:40.673Z,14.85
2018-04-14T18:32:08.148Z,14.85
2018-04-14T18:34:35.606Z,14.88
2018-04-14T18:37:03.082Z,14.95
2018-04-14T18:39:30.558Z,14.99
2018-04-14T18:41:58.136Z,14.99
2018-04-14T18:44:25.710Z,15.00
2018-04-14T18:46:53.221Z,14.99
2018-04-14T18:49:20.810Z,15.00
2018-04-14T18:51:48.280Z,14.98
2018-04-14T18:54:15.900Z,14.98
2018-04-14T18:56:43.398Z,14.95
2018-04-14T18:59:10.915Z,14.92
2018-04-14T19:01:38.442Z,14.88
2018-04-14T19:04:05.953Z,14.83
2018-04-14T19:06:33.541Z,14.78
2018-04-14T19:09:01.067Z,14.74
2018-04-14T19:11:28.659Z,14.69
2018-04-14T19:13:56.176Z,14.67
2018-04-14T19:16:23.706Z,14.64
2018-04-14T19:18:51.193Z,14.59
2018-04-14T19:21:18.671Z,14.57
2018-04-14T19:23:46.202Z,14.54
2018-04-14T19:26:13.753Z,14.46
2018-04-14T19:28:41.255Z,14.41
2018-04-14T19:31:08.733Z,14.28
2018-04-14T19:33:36.209Z,14.22
2018-04-14T19:36:03.715Z,14.16
2018-04-14T19:38:31.232Z,14.10
2018-04-14T19:40:58.805Z,14.06
2018-04-14T19:43:26.319Z,14.02
2018-04-14T19:45:53.839Z,14.02
2018-04-14T19:48:21.459Z,14.02
2018-04-14T19:50:48.971Z,13.97
2018-04-14T19:53:16.519Z,13.87
2018-04-14T19:55:44.018Z,13.80
2018-04-14T19:58:11.480Z,13.77
2018-04-14T20:00:39.060Z,13.75
2018-04-14T20:03:06.554Z,13.70
2018-04-14T20:05:34.026Z,13.68
2018-04-14T20:08:01.575Z,13.64
2018-04-14T20:10:29.168Z,13.61
2018-04-14T20:12:56.635Z,13.57
2018-04-14T20:15:24.097Z,13.57
2018-04-14T20:17:51.577Z,13.53
2018-04-14T20:20:19.067Z,13.51
2018-04-14T20:22:46.668Z,13.45
2018-04-14T20:25:14.203Z,13.42
2018-04-14T20:27:41.718Z,13.41
2018-04-14T20:30:09.260Z,13.39
2018-04-14T20:32:36.761Z,13.36
2018-04-14T20:35:04.284Z,13.33
2018-04-14T20:37:31.812Z,13.29
2018-04-14T20:39:59.268Z,13.29
2018-04-14T20:42:26.761Z,13.26
2018-04-14T20:44:54.301Z,13.27
2018-04-14T20:47:21.802Z,13.26
2018-04-14T20:49:49.290Z,13.22
2018-04-14T20:52:16.766Z,13.21
2018-04-14T20:54:44.296Z,13.15
2018-04-14T20:57:11.881Z,13.11
2018-04-14T20:59:39.359Z,13.07
2018-04-14T21:02:06.861Z,13.06
2018-04-14T21:04:34.403Z,13.04
2018-04-14T21:07:01.950Z,12.99
2018-04-14T21:09:29.476Z,12.97
2018-04-14T21:11:56.941Z,12.94
2018-04-14T21:14:24.491Z,12.92
2018-04-14T21:16:51.976Z,12.88
2018-04-14T21:19:19.448Z,12.84
2018-04-14T21:21:46.953Z,12.81
2018-04-14T21:24:14.489Z,12.80
2018-04-14T21:26:42.043Z,12.78
2018-04-14T21:29:09.644Z,12.81
2018-04-14T21:31:37.133Z,12.77
2018-04-14T21:34:04.657Z,12.69
2018-04-14T21:36:32.143Z,12.68
2018-04-14T21:38:59.632Z,12.67
2018-04-14T21:41:27.136Z,12.62
2018-04-14T21:43:54.660Z,12.56
2018-04-14T21:46:22.120Z,12.58
2018-04-14T21:48:49.609Z,12.56
2018-04-14T21:51:17.124Z,12.55
2018-04-14T21:53:44.607Z,12.54
2018-04-14T21:56:12.117Z,12.52
2018-04-14T21:58:39.636Z,12.47
2018-04-14T22:01:07.202Z,12.43
2018-04-14T22:03:34.705Z,12.31
2018-04-14T22:06:02.222Z,12.24
2018-04-14T22:08:29.695Z,12.22
2018-04-14T22:10:57.159Z,12.21
2018-04-14T22:13:24.647Z,12.23
2018-04-14T22:15:52.160Z,12.23
2018-04-14T22:18:19.668Z,12.31
2018-04-14T22:20:47.168Z,12.36
2018-04-14T22:23:14.661Z,12.40
2018-04-14T22:25:42.374Z,12.36
2018-04-14T22:28:09.902Z,12.36
2018-04-14T22:30:37.394Z,12.38
2018-04-14T22:33:04.919Z,12.32
2018-04-14T22:35:32.404Z,12.20
2018-04-14T22:37:59.972Z,12.09
2018-04-14T22:40:27.473Z,11.98
2018-04-14T22:42:54.981Z,11.92
2018-04-14T22:45:22.512Z,11.89
2018-04-14T22:47:50.025Z,11.86
2018-04-14T22:50:17.494Z,11.83
2018-04-14T22:52:45.012Z,11.81
2018-04-14T22:55:12.471Z,11.80
2018-04-14T22:57:39.975Z,11.78
2018-04-14T23:00:07.520Z,11.76
2018-04-14T23:02:35.071Z,11.76
2018-04-14T23:05:02.546Z,11.75
2018-04-14T23:07:30.169Z,11.70
2018-04-14T23:09:57.643Z,11.63
2018-04-14T23:12:25.225Z,11.58
2018-04-14T23:14:52.730Z,11.54
2018-04-14T23:17:20.294Z,11.52
2018-04-14T23:19:47.757Z,11.49
2018-04-14T23:22:15.281Z,11.47
2018-04-14T23:24:42.755Z,11.46
2018-04-14T23:27:10.253Z,11.46
2018-04-14T23:29:37.772Z,11.47
2018-04-14T23:32:05.307Z,11.48
2018-04-14T23:34:32.788Z,11.45
2018-04-14T23:37:00.327Z,11.44
2018-04-14T23:39:27.801Z,11.40
2018-04-14T23:41:55.346Z,11.41
2018-04-14T23:44:22.872Z,11.38
2018-04-14T23:46:50.335Z,11.40
2018-04-14T23:49:17.809Z,11.35
2018-04-14T23:51:45.272Z,11.32
2018-04-14T23:54:12.747Z,11.32
2018-04-14T23:56:40.341Z,11.30
2018-04-14T23:59:07.862Z,11.28
